createdAt,value
2022-09-21T00:01:43.140Z,5.83
2022-09-21T00:04:12.003Z,6.67
2022-09-21T00:06:40.753Z,6.00
2022-09-21T00:09:09.644Z,5.57
2022-09-21T00:11:38.776Z,5.90
2022-09-21T00:14:10.811Z,5.57
2022-09-21T00:16:44.491Z,6.07
2022-09-21T00:19:13.563Z,5.67
2022-09-21T00:21:42.484Z,5.50
2022-09-21T00:24:12.406Z,5.23
2022-09-21T00:26:41.118Z,6.00
2022-09-21T00:29:11.790Z,5.33
2022-09-21T00:31:40.873Z,6.17
2022-09-21T00:34:11.171Z,5.73
2022-09-21T00:36:39.897Z,6.07
2022-09-21T00:39:08.704Z,5.87
2022-09-21T00:41:40.617Z,5.20
2022-09-21T00:44:30.961Z,6.20
2022-09-21T00:47:05.609Z,4.77
2022-09-21T00:49:37.821Z,5.60
2022-09-21T00:52:08.545Z,5.93
2022-09-21T00:54:41.907Z,5.87
2022-09-21T00:57:11.510Z,5.83
2022-09-21T00:59:41.423Z,6.00
2022-09-21T01:02:10.381Z,5.30
2022-09-21T01:04:41.015Z,5.70
2022-09-21T01:07:15.569Z,5.80
2022-09-21T01:09:46.480Z,6.17
2022-09-21T01:12:30.560Z,6.47
2022-09-21T01:15:09.401Z,4.97
2022-09-21T01:17:46.362Z,5.43
2022-09-21T01:20:36.851Z,5.80
2022-09-21T01:23:25.792Z,6.27
2022-09-21T01:26:05.168Z,5.13
2022-09-21T01:28:51.830Z,6.00
2022-09-21T01:31:25.693Z,6.27
2022-09-21T01:33:59.363Z,5.80
2022-09-21T01:36:32.451Z,5.97
2022-09-21T01:39:07.900Z,4.80
2022-09-21T01:41:40.483Z,5.30
2022-09-21T01:44:14.447Z,5.53
2022-09-21T01:46:43.917Z,4.80
2022-09-21T01:49:16.329Z,5.43
2022-09-21T01:51:50.595Z,6.20
2022-09-21T01:54:24.174Z,4.97
2022-09-21T01:56:57.184Z,5.27
2022-09-21T01:59:34.136Z,5.30
2022-09-21T02:02:10.961Z,5.03
2022-09-21T02:04:41.438Z,5.57
2022-09-21T02:07:10.046Z,4.80
2022-09-21T02:09:39.115Z,5.47
2022-09-21T02:12:07.567Z,5.23
2022-09-21T02:14:38.956Z,5.10
2022-09-21T02:17:23.673Z,4.80
2022-09-21T02:19:58.910Z,4.47
2022-09-21T02:22:35.335Z,6.10
2022-09-21T02:25:10.439Z,5.90
2022-09-21T02:27:46.846Z,5.50
2022-09-21T02:30:20.314Z,4.77
2022-09-21T02:32:55.225Z,4.60
2022-09-21T02:35:32.526Z,5.17
2022-09-21T02:38:10.613Z,4.53
2022-09-21T02:40:44.642Z,4.83
2022-09-21T02:43:20.781Z,5.23
2022-09-21T02:45:55.550Z,5.70
2022-09-21T02:48:30.049Z,5.97
2022-09-21T02:51:02.287Z,4.90
2022-09-21T02:53:36.435Z,5.37
2022-09-21T02:56:07.416Z,5.13
2022-09-21T02:58:40.044Z,5.57
2022-09-21T03:01:12.701Z,5.70
2022-09-21T03:03:41.075Z,5.60
2022-09-21T03:06:09.570Z,5.93
2022-09-21T03:08:37.784Z,4.70
2022-09-21T03:11:06.296Z,5.13
2022-09-21T03:13:34.933Z,5.20
2022-09-21T03:16:05.271Z,5.13
2022-09-21T03:18:35.660Z,5.43
2022-09-21T03:21:04.673Z,5.63
2022-09-21T03:23:33.178Z,4.17
2022-09-21T03:26:01.614Z,4.77
2022-09-21T03:28:30.049Z,4.47
2022-09-21T03:31:01.540Z,4.27
2022-09-21T03:33:29.896Z,4.70
2022-09-21T03:35:59.856Z,3.87
2022-09-21T03:38:28.125Z,4.97
2022-09-21T03:40:58.013Z,5.97
2022-09-21T03:43:27.035Z,4.30
2022-09-21T03:45:55.376Z,4.83
2022-09-21T03:48:23.681Z,5.53
2022-09-21T03:50:52.527Z,4.50
2022-09-21T03:53:22.261Z,5.80
2022-09-21T03:55:50.974Z,4.27
2022-09-21T03:58:19.237Z,4.27
2022-09-21T04:00:49.968Z,5.20
2022-09-21T04:03:18.205Z,5.13
2022-09-21T04:05:46.527Z,4.17
2022-09-21T04:08:14.961Z,5.73
2022-09-21T04:10:44.726Z,4.10
2022-09-21T04:13:13.622Z,3.63
2022-09-21T04:15:42.052Z,3.77
2022-09-21T04:18:10.346Z,4.37
2022-09-21T04:20:38.682Z,3.80
2022-09-21T04:23:09.988Z,4.23
2022-09-21T04:25:38.625Z,4.40
2022-09-21T04:28:08.495Z,4.90
2022-09-21T04:30:37.908Z,5.50
2022-09-21T04:33:06.559Z,5.33
2022-09-21T04:35:34.976Z,5.33
2022-09-21T04:38:03.522Z,5.30
2022-09-21T04:40:31.904Z,6.37
2022-09-21T04:43:00.334Z,5.57
2022-09-21T04:45:30.092Z,6.10
2022-09-21T04:47:58.403Z,6.97
2022-09-21T04:50:26.709Z,6.40
2022-09-21T04:53:05.041Z,5.20
2022-09-21T04:55:33.487Z,4.40
2022-09-21T04:58:01.843Z,4.47
2022-09-21T05:00:31.942Z,4.60
2022-09-21T05:03:00.482Z,5.40
2022-09-21T05:05:28.932Z,4.43
2022-09-21T05:07:57.340Z,4.37
2022-09-21T05:10:24.925Z,4.90
2022-09-21T05:12:53.855Z,4.37
2022-09-21T05:15:22.555Z,5.03
2022-09-21T05:17:52.268Z,5.27
2022-09-21T05:20:20.655Z,5.00
2022-09-21T05:22:49.029Z,5.50
2022-09-21T05:25:17.617Z,6.30
2022-09-21T05:27:45.924Z,5.40
2022-09-21T05:30:15.641Z,5.17
2022-09-21T05:32:49.885Z,5.57
2022-09-21T05:35:30.560Z,4.93
2022-09-21T05:38:04.741Z,5.60
2022-09-21T05:40:34.067Z,5.40
2022-09-21T05:43:03.215Z,5.03
2022-09-21T05:45:32.314Z,4.60
2022-09-21T05:48:18.790Z,5.73
2022-09-21T05:50:58.218Z,5.17
2022-09-21T05:53:46.877Z,5.90
2022-09-21T05:56:25.666Z,6.87
2022-09-21T05:59:02.800Z,6.40
2022-09-21T06:01:41.869Z,5.60
2022-09-21T06:04:12.876Z,5.73
2022-09-21T06:06:42.688Z,6.20
2022-09-21T06:09:11.104Z,6.67
2022-09-21T06:11:39.492Z,7.23
2022-09-21T06:14:07.970Z,6.90
2022-09-21T06:16:40.237Z,6.83
2022-09-21T06:19:11.996Z,6.63
2022-09-21T06:21:40.453Z,7.27
2022-09-21T06:24:10.488Z,6.47
2022-09-21T06:26:38.990Z,6.80
2022-09-21T06:29:07.430Z,7.33
2022-09-21T06:31:36.699Z,6.67
2022-09-21T06:34:05.423Z,6.60
2022-09-21T06:36:33.927Z,6.77
2022-09-21T06:39:02.422Z,7.67
2022-09-21T06:41:32.178Z,6.83
2022-09-21T06:44:00.902Z,7.10
2022-09-21T06:46:29.312Z,8.20
2022-09-21T06:48:57.948Z,8.13
2022-09-21T06:51:26.492Z,7.77
2022-09-21T06:53:56.872Z,8.33
2022-09-21T06:56:25.785Z,8.13
2022-09-21T06:58:56.669Z,7.60
2022-09-21T07:01:25.655Z,8.77
2022-09-21T07:03:54.504Z,8.83
2022-09-21T07:06:23.545Z,7.97
2022-09-21T07:11:43.052Z,9.40
2022-09-21T07:14:12.883Z,8.27
2022-09-21T07:16:41.391Z,9.80
2022-09-21T07:19:11.803Z,9.57
2022-09-21T07:21:40.796Z,10.13
2022-09-21T07:24:12.473Z,11.37
2022-09-21T07:26:41.105Z,11.17
2022-09-21T07:29:09.662Z,10.27
2022-09-21T07:31:39.665Z,11.10
2022-09-21T07:34:08.201Z,10.80
2022-09-21T07:36:36.624Z,10.70
2022-09-21T07:39:07.695Z,13.00
2022-09-21T07:41:38.797Z,12.23
2022-09-21T07:44:07.434Z,12.40
2022-09-21T07:46:36.210Z,11.63
2022-09-21T07:49:06.540Z,12.43
2022-09-21T07:51:35.097Z,11.53
2022-09-21T07:54:05.120Z,11.67
2022-09-21T07:56:33.535Z,11.50
2022-09-21T07:59:07.324Z,13.13
2022-09-21T08:01:37.866Z,12.07
2022-09-21T08:04:09.192Z,12.43
2022-09-21T08:06:40.287Z,14.40
2022-09-21T08:09:09.675Z,15.33
2022-09-21T08:11:39.698Z,14.40
2022-09-21T08:14:08.324Z,14.27
2022-09-21T08:16:58.849Z,14.10
2022-09-21T08:19:30.103Z,15.73
2022-09-21T08:21:59.013Z,14.87
2022-09-21T08:24:27.758Z,14.30
2022-09-21T08:26:56.951Z,16.00
2022-09-21T08:29:25.934Z,14.53
2022-09-21T08:31:54.801Z,14.33
2022-09-21T08:34:24.130Z,14.03
2022-09-21T08:36:55.790Z,14.17
2022-09-21T08:39:24.792Z,15.03
2022-09-21T08:42:10.049Z,14.40
2022-09-21T08:44:43.103Z,14.47
2022-09-21T08:47:17.065Z,14.27
2022-09-21T08:49:52.475Z,14.97
2022-09-21T08:52:25.985Z,14.20
2022-09-21T08:54:59.269Z,13.53
2022-09-21T08:57:31.441Z,12.73
2022-09-21T09:00:01.357Z,12.57
2022-09-21T09:02:42.941Z,12.03
2022-09-21T09:05:29.426Z,11.63
2022-09-21T09:08:19.592Z,11.53
2022-09-21T09:11:04.390Z,10.60
2022-09-21T09:13:47.794Z,11.33
2022-09-21T09:16:24.346Z,11.07
2022-09-21T09:18:55.614Z,11.10
2022-09-21T09:21:32.415Z,12.30
2022-09-21T09:24:06.883Z,12.83
2022-09-21T09:26:42.863Z,11.77
2022-09-21T09:29:20.038Z,10.20
2022-09-21T09:31:51.427Z,10.50
2022-09-21T09:34:25.813Z,10.47
2022-09-21T09:36:59.902Z,8.77
2022-09-21T09:39:32.124Z,8.03
2022-09-21T09:42:24.020Z,8.37
2022-09-21T09:45:25.991Z,7.33
2022-09-21T09:48:08.034Z,6.37
2022-09-21T09:50:38.858Z,5.90
2022-09-21T09:53:12.252Z,6.93
2022-09-21T09:55:44.828Z,6.83
2022-09-21T09:58:19.992Z,7.27
2022-09-21T10:00:53.191Z,7.30
2022-09-21T10:03:24.332Z,7.17
2022-09-21T10:05:53.754Z,7.03
2022-09-21T10:08:32.430Z,6.60
2022-09-21T10:11:03.283Z,6.60
2022-09-21T10:13:34.856Z,5.27
2022-09-21T10:16:07.516Z,4.27
2022-09-21T10:18:42.399Z,4.90
2022-09-21T10:21:18.934Z,3.40
2022-09-21T10:23:50.537Z,3.87
2022-09-21T10:26:21.861Z,4.10
2022-09-21T10:28:58.579Z,3.37
2022-09-21T10:31:30.067Z,3.93
2022-09-21T10:34:08.796Z,3.97
2022-09-21T10:36:38.998Z,3.77
2022-09-21T10:39:29.871Z,3.60
2022-09-21T10:42:03.740Z,4.20
2022-09-21T10:44:42.241Z,3.10
2022-09-21T10:47:21.368Z,2.50
2022-09-21T10:49:52.341Z,3.07
2022-09-21T10:52:23.708Z,3.63
2022-09-21T10:54:55.891Z,3.67
2022-09-21T10:57:29.135Z,4.17
2022-09-21T10:59:57.864Z,3.40
2022-09-21T11:02:31.452Z,3.60
2022-09-21T11:05:06.239Z,3.20
2022-09-21T11:07:41.058Z,3.60
2022-09-21T11:10:17.707Z,4.03
2022-09-21T11:13:04.501Z,6.33
2022-09-21T11:15:43.252Z,3.27
2022-09-21T11:18:20.259Z,3.63
2022-09-21T11:20:52.532Z,3.70
2022-09-21T11:23:41.304Z,3.20
2022-09-21T11:26:16.217Z,3.00
2022-09-21T11:28:52.525Z,2.30
2022-09-21T11:31:53.189Z,2.57
2022-09-21T11:34:39.149Z,5.63
2022-09-21T11:37:22.277Z,2.00
2022-09-21T11:40:09.606Z,2.23
2022-09-21T11:42:53.231Z,2.20
2022-09-21T11:45:41.897Z,2.10
2022-09-21T11:48:21.533Z,1.90
2022-09-21T11:51:01.315Z,2.07
2022-09-21T11:53:46.779Z,1.63
2022-09-21T11:56:45.636Z,1.40
2022-09-21T11:59:44.121Z,1.40
2022-09-21T12:03:00.711Z,1.90
2022-09-21T12:05:34.145Z,1.47
2022-09-21T12:08:26.188Z,1.60
2022-09-21T12:11:04.309Z,1.57
2022-09-21T12:13:41.228Z,1.40
2022-09-21T12:16:20.310Z,1.30
2022-09-21T12:18:58.280Z,1.10
2022-09-21T12:21:31.379Z,1.27
2022-09-21T12:24:05.554Z,1.30
2022-09-21T12:26:40.398Z,1.60
2022-09-21T12:29:16.434Z,1.93
2022-09-21T12:32:01.115Z,1.83
2022-09-21T12:34:40.031Z,2.50
2022-09-21T12:37:13.574Z,2.20
2022-09-21T12:39:48.445Z,2.33
2022-09-21T12:42:31.831Z,1.73
2022-09-21T12:45:05.285Z,1.97
2022-09-21T12:47:46.618Z,1.40
2022-09-21T12:50:24.174Z,2.00
2022-09-21T12:52:53.783Z,1.70
2022-09-21T12:55:41.693Z,2.40
2022-09-21T12:58:17.706Z,1.67
2022-09-21T13:00:55.782Z,1.93
2022-09-21T13:03:33.246Z,1.70
2022-09-21T13:06:22.551Z,2.27
2022-09-21T13:08:51.973Z,1.47
2022-09-21T13:11:23.302Z,1.93
2022-09-21T13:13:55.550Z,1.60
2022-09-21T13:16:29.053Z,1.50
2022-09-21T13:19:00.136Z,2.13
2022-09-21T13:21:31.429Z,2.03
2022-09-21T13:24:02.513Z,2.97
2022-09-21T13:26:35.921Z,2.57
2022-09-21T13:29:26.226Z,3.83
2022-09-21T13:31:58.936Z,3.50
2022-09-21T13:34:37.820Z,4.40
2022-09-21T13:37:29.456Z,3.33
2022-09-21T13:40:41.270Z,3.13
2022-09-21T13:43:23.554Z,2.70
2022-09-21T13:45:57.892Z,2.50
2022-09-21T13:48:30.938Z,2.63
2022-09-21T13:51:10.286Z,2.67
2022-09-21T13:53:42.328Z,2.10
2022-09-21T13:56:20.379Z,2.80
2022-09-21T13:58:52.214Z,2.20
2022-09-21T14:04:21.659Z,2.23
2022-09-21T14:06:53.465Z,2.23
2022-09-21T14:09:28.511Z,2.73
2022-09-21T14:12:01.783Z,2.17
2022-09-21T14:14:37.322Z,1.57
2022-09-21T14:17:07.317Z,1.80
2022-09-21T14:20:02.264Z,2.07
2022-09-21T14:22:39.608Z,1.80
2022-09-21T14:25:32.855Z,2.00
2022-09-21T14:28:06.270Z,2.10
2022-09-21T14:30:37.182Z,2.23
2022-09-21T14:33:22.339Z,1.47
2022-09-21T14:35:53.183Z,1.97
2022-09-21T14:38:26.862Z,1.50
2022-09-21T14:41:02.641Z,1.97
2022-09-21T14:43:35.395Z,1.63
2022-09-21T14:46:40.539Z,1.63
2022-09-21T14:49:24.761Z,2.00
2022-09-21T14:52:12.711Z,1.77
2022-09-21T14:54:53.304Z,2.10
2022-09-21T14:57:37.431Z,2.13
2022-09-21T15:00:21.158Z,2.10
2022-09-21T15:02:55.399Z,1.87
2022-09-21T15:05:34.719Z,1.47
2022-09-21T15:09:02.924Z,2.00
2022-09-21T15:11:38.548Z,1.97
2022-09-21T15:14:18.312Z,1.73
2022-09-21T15:16:50.523Z,1.43
2022-09-21T15:19:27.350Z,2.07
2022-09-21T15:21:57.592Z,2.00
2022-09-21T15:24:29.619Z,1.53
2022-09-21T15:27:06.958Z,1.77
2022-09-21T15:29:40.434Z,1.60
2022-09-21T15:32:08.989Z,2.73
2022-09-21T15:34:39.893Z,2.20
2022-09-21T15:37:15.594Z,2.20
2022-09-21T15:39:47.990Z,2.70
2022-09-21T15:42:22.946Z,2.37
2022-09-21T15:45:11.458Z,2.13
2022-09-21T15:47:46.528Z,1.67
2022-09-21T15:50:20.251Z,1.40
2022-09-21T15:52:52.565Z,1.90
2022-09-21T15:55:23.138Z,2.60
2022-09-21T15:57:53.326Z,2.37
2022-09-21T16:00:27.089Z,2.20
2022-09-21T16:03:06.353Z,2.10
2022-09-21T16:05:45.384Z,1.93
2022-09-21T16:08:33.214Z,2.77
2022-09-21T16:11:35.426Z,3.10
2022-09-21T16:14:29.122Z,3.27
2022-09-21T16:17:24.794Z,2.80
2022-09-21T16:20:19.132Z,3.57
2022-09-21T16:22:49.825Z,2.70
2022-09-21T16:25:30.068Z,3.00
2022-09-21T16:28:00.358Z,2.70
2022-09-21T16:30:51.259Z,3.17
2022-09-21T16:34:01.619Z,3.17
2022-09-21T16:36:40.754Z,2.90
2022-09-21T16:39:17.546Z,3.47
2022-09-21T16:42:00.221Z,3.37
2022-09-21T16:44:31.626Z,3.30
2022-09-21T16:47:02.665Z,3.73
2022-09-21T16:49:35.836Z,3.27
2022-09-21T16:52:04.831Z,4.30
2022-09-21T16:54:34.765Z,3.60
2022-09-21T16:57:06.352Z,3.30
2022-09-21T16:59:36.637Z,3.50
2022-09-21T17:02:06.084Z,3.47
2022-09-21T17:04:37.019Z,3.50
2022-09-21T17:07:06.240Z,3.30
2022-09-21T17:09:38.642Z,3.77
2022-09-21T17:12:08.909Z,3.13
2022-09-21T17:14:41.870Z,3.60
2022-09-21T17:17:17.642Z,3.40
2022-09-21T17:19:50.145Z,3.10
2022-09-21T17:22:19.170Z,3.50
2022-09-21T17:24:51.763Z,3.47
2022-09-21T17:27:23.692Z,3.90
2022-09-21T17:29:55.396Z,3.57
2022-09-21T17:32:28.508Z,3.83
2022-09-21T17:35:02.177Z,4.13
2022-09-21T17:37:32.458Z,3.30
2022-09-21T17:40:01.050Z,3.63
2022-09-21T17:42:29.789Z,3.83
2022-09-21T17:45:14.405Z,3.57
2022-09-21T17:47:43.211Z,3.90
2022-09-21T17:50:31.685Z,3.90
2022-09-21T17:53:18.456Z,4.13
2022-09-21T17:55:54.582Z,3.80
2022-09-21T17:58:45.858Z,4.13
2022-09-21T18:01:23.979Z,4.20
2022-09-21T18:03:55.482Z,3.93
2022-09-21T18:06:26.060Z,4.57
2022-09-21T18:08:55.186Z,5.03
2022-09-21T18:11:47.431Z,4.27
2022-09-21T18:14:25.238Z,4.57
2022-09-21T18:17:05.828Z,5.23
2022-09-21T18:19:46.501Z,4.50
2022-09-21T18:22:29.006Z,4.70
2022-09-21T18:24:59.368Z,5.30
2022-09-21T18:27:28.523Z,4.80
2022-09-21T18:29:57.732Z,4.80
2022-09-21T18:32:39.821Z,4.77
2022-09-21T18:35:27.612Z,4.97
2022-09-21T18:38:14.754Z,5.00
2022-09-21T18:40:53.512Z,4.70
2022-09-21T18:43:30.909Z,4.40
2022-09-21T18:46:04.354Z,4.30
2022-09-21T18:48:50.787Z,4.63
2022-09-21T18:51:25.170Z,5.70
2022-09-21T18:53:57.177Z,5.13
2022-09-21T18:56:34.717Z,6.03
2022-09-21T18:59:04.089Z,5.57
2022-09-21T19:01:34.178Z,4.97
2022-09-21T19:04:03.441Z,5.53
2022-09-21T19:06:47.335Z,6.57
2022-09-21T19:09:34.582Z,5.63
2022-09-21T19:12:14.798Z,5.73
2022-09-21T19:14:55.031Z,5.90
2022-09-21T19:17:40.396Z,5.57
2022-09-21T19:20:27.117Z,5.27
2022-09-21T19:23:06.353Z,6.13
2022-09-21T19:25:48.662Z,6.30
2022-09-21T19:28:47.236Z,6.43
2022-09-21T19:31:18.950Z,6.30
2022-09-21T19:33:57.723Z,6.50
2022-09-21T19:36:26.388Z,6.27
2022-09-21T19:38:55.384Z,5.40
2022-09-21T19:41:39.356Z,5.60
2022-09-21T19:44:21.639Z,6.03
2022-09-21T19:46:59.949Z,5.50
2022-09-21T19:49:37.141Z,4.93
2022-09-21T19:52:07.052Z,4.90
2022-09-21T19:54:53.254Z,5.70
2022-09-21T19:57:41.225Z,4.50
2022-09-21T20:00:13.706Z,5.67
2022-09-21T20:02:51.932Z,6.33
2022-09-21T20:05:28.080Z,4.70
2022-09-21T20:08:04.538Z,4.63
2022-09-21T20:10:53.256Z,4.57
2022-09-21T20:13:32.260Z,4.93
2022-09-21T20:16:06.377Z,5.87
2022-09-21T20:18:41.921Z,5.07
2022-09-21T20:21:14.805Z,5.10
2022-09-21T20:23:43.689Z,6.23
2022-09-21T20:26:23.977Z,6.57
2022-09-21T20:28:55.199Z,5.93
2022-09-21T20:31:25.857Z,5.90
2022-09-21T20:33:54.472Z,5.43
2022-09-21T20:36:23.452Z,5.83
2022-09-21T20:38:52.879Z,5.93
2022-09-21T20:41:22.317Z,6.27
2022-09-21T20:43:50.711Z,5.97
2022-09-21T20:46:20.656Z,6.30
2022-09-21T20:49:00.357Z,6.40
2022-09-21T20:51:29.033Z,7.10
2022-09-21T20:53:57.575Z,6.50
2022-09-21T20:56:26.097Z,6.83
2022-09-21T20:58:54.686Z,6.83
2022-09-21T21:01:25.139Z,6.47
2022-09-21T21:03:53.808Z,6.27
2022-09-21T21:06:22.322Z,6.90
2022-09-21T21:08:50.814Z,6.23
2022-09-21T21:11:20.456Z,6.60
2022-09-21T21:13:48.974Z,6.27
2022-09-21T21:16:17.720Z,6.10
2022-09-21T21:18:47.654Z,6.13
2022-09-21T21:21:16.456Z,6.03
2022-09-21T21:24:02.270Z,7.67
2022-09-21T21:26:57.405Z,6.23
2022-09-21T21:29:19.153Z,5.97
2022-09-21T21:31:48.869Z,6.37
2022-09-21T21:34:18.772Z,6.00
2022-09-21T21:36:47.362Z,5.80
2022-09-21T21:39:15.843Z,5.90
2022-09-21T21:41:44.181Z,5.50
2022-09-21T21:44:12.716Z,5.37
2022-09-21T21:46:41.219Z,5.63
2022-09-21T21:49:09.765Z,5.80
2022-09-21T21:51:39.632Z,5.27
2022-09-21T21:54:08.598Z,5.60
2022-09-21T21:56:36.984Z,6.20
2022-09-21T21:59:05.861Z,5.50
2022-09-21T22:01:34.548Z,5.33
2022-09-21T22:04:03.897Z,5.87
2022-09-21T22:06:34.170Z,6.10
2022-09-21T22:09:05.599Z,5.30
2022-09-21T22:11:35.200Z,5.63
2022-09-21T22:14:04.761Z,5.17
2022-09-21T22:16:35.404Z,5.37
2022-09-21T22:19:05.275Z,4.90
2022-09-21T22:21:35.628Z,5.63
2022-09-21T22:24:07.248Z,6.00
2022-09-21T22:26:38.324Z,5.43
2022-09-21T22:29:08.166Z,5.33
2022-09-21T22:31:38.233Z,5.50
2022-09-21T22:34:07.653Z,6.10
2022-09-21T22:36:40.734Z,5.20
2022-09-21T22:39:10.745Z,5.27
2022-09-21T22:41:40.749Z,5.43
2022-09-21T22:44:10.191Z,5.03
2022-09-21T22:46:38.846Z,5.17
2022-09-21T22:49:07.807Z,4.97
2022-09-21T22:51:38.144Z,4.97
2022-09-21T22:54:07.325Z,5.90
2022-09-21T22:56:37.325Z,5.33
2022-09-21T22:59:06.428Z,5.57
2022-09-21T23:01:37.228Z,5.30
2022-09-21T23:04:07.705Z,6.23
2022-09-21T23:06:37.814Z,5.10
2022-09-21T23:09:09.222Z,5.87
2022-09-21T23:11:42.949Z,4.93
2022-09-21T23:14:12.965Z,5.20
2022-09-21T23:16:41.665Z,4.93
2022-09-21T23:19:15.753Z,5.80
2022-09-21T23:21:46.235Z,6.53
2022-09-21T23:24:16.932Z,5.63
2022-09-21T23:26:51.719Z,5.87
2022-09-21T23:29:20.334Z,5.77
2022-09-21T23:31:48.925Z,6.10
2022-09-21T23:34:17.774Z,5.60
2022-09-21T23:36:46.641Z,5.87
2022-09-21T23:39:16.674Z,5.83
2022-09-21T23:41:45.418Z,6.10
2022-09-21T23:44:15.149Z,5.87
2022-09-21T23:46:44.173Z,6.23
2022-09-21T23:49:12.746Z,6.67
2022-09-21T23:51:41.597Z,5.33
2022-09-21T23:54:10.117Z,5.63
2022-09-21T23:56:38.998Z,7.70
2022-09-21T23:59:07.312Z,6.57
